createdAt,value
2022-08-22T00:00:50.277Z,101646.94
2022-08-22T00:02:42.775Z,101616.91
2022-08-22T00:04:14.531Z,101646.91
2022-08-22T00:07:37.129Z,101644.94
2022-08-22T00:10:58.186Z,101651.25
2022-08-22T00:14:11.976Z,101658.59
2022-08-22T00:17:36.604Z,101656.88
2022-08-22T00:20:50.366Z,101642.81
2022-08-22T00:24:10.448Z,101653.56
2022-08-22T00:27:22.454Z,101653.56
2022-08-22T00:30:27.889Z,101648.56
2022-08-22T00:33:43.970Z,101647.94
2022-08-22T00:37:03.423Z,101642.63
2022-08-22T00:40:43.026Z,101653.16
2022-08-22T00:44:36.808Z,101643.88
2022-08-22T00:48:04.415Z,101644.78
2022-08-22T00:51:52.924Z,101648.53
2022-08-22T00:55:21.964Z,101646.03
2022-08-22T00:59:22.967Z,101646.19
2022-08-22T01:03:14.313Z,101644.28
2022-08-22T01:06:31.006Z,101643.72
2022-08-22T01:09:54.773Z,101637.09
2022-08-22T01:13:32.668Z,101639.97
2022-08-22T01:17:09.443Z,101637.94
2022-08-22T01:21:20.125Z,101642.03
2022-08-22T01:25:26.585Z,101640.03
2022-08-22T01:29:33.547Z,101648.00
2022-08-22T01:33:39.978Z,101648.47
2022-08-22T01:37:39.622Z,101649.78
2022-08-22T01:41:49.372Z,101649.91
2022-08-22T01:45:23.212Z,101643.81
2022-08-22T01:48:39.363Z,101647.84
2022-08-22T01:51:53.438Z,101650.75
2022-08-22T01:55:08.510Z,101654.28
2022-08-22T01:58:21.299Z,101656.84
2022-08-22T02:01:53.255Z,101650.56
2022-08-22T02:05:07.188Z,101648.41
2022-08-22T02:08:28.219Z,101652.16
2022-08-22T02:11:56.376Z,101651.13
2022-08-22T02:15:18.406Z,101650.19
2022-08-22T02:18:31.031Z,101645.69
2022-08-22T02:21:47.527Z,101649.28
2022-08-22T02:25:06.975Z,101649.84
2022-08-22T02:28:30.834Z,101653.66
2022-08-22T02:31:46.376Z,101654.78
2022-08-22T02:35:03.701Z,101657.50
2022-08-22T02:38:38.474Z,101658.72
2022-08-22T02:41:55.078Z,101652.63
2022-08-22T02:45:22.593Z,101651.03
2022-08-22T02:48:42.755Z,101652.91
2022-08-22T02:51:56.269Z,101656.63
2022-08-22T02:55:08.995Z,101648.94
2022-08-22T02:58:24.486Z,101646.56
2022-08-22T03:01:45.528Z,101648.44
2022-08-22T03:04:55.739Z,101650.41
2022-08-22T03:08:14.684Z,101652.53
2022-08-22T03:11:27.976Z,101649.19
2022-08-22T03:14:41.255Z,101652.06
2022-08-22T03:17:57.297Z,101653.84
2022-08-22T03:21:18.601Z,101648.81
2022-08-22T03:24:32.910Z,101656.03
2022-08-22T03:27:46.174Z,101653.69
2022-08-22T03:31:08.354Z,101651.09
2022-08-22T03:34:24.782Z,101651.09
2022-08-22T03:37:41.279Z,101648.66
2022-08-22T03:41:10.541Z,101646.63
2022-08-22T03:44:50.883Z,101646.69
2022-08-22T03:48:22.284Z,101644.78
2022-08-22T03:51:51.388Z,101649.06
2022-08-22T03:55:27.758Z,101651.44
2022-08-22T03:59:02.251Z,101652.47
2022-08-22T04:02:47.823Z,101657.84
2022-08-22T04:06:42.215Z,101658.88
2022-08-22T04:10:39.723Z,101649.63
2022-08-22T04:14:19.743Z,101651.06
2022-08-22T04:17:51.260Z,101656.22
2022-08-22T04:21:23.742Z,101659.00
2022-08-22T04:24:55.306Z,101662.44
2022-08-22T04:28:11.392Z,101671.84
2022-08-22T04:31:21.732Z,101665.47
2022-08-22T04:34:37.812Z,101668.72
2022-08-22T04:37:52.191Z,101665.22
2022-08-22T04:41:08.273Z,101667.88
2022-08-22T04:44:18.542Z,101669.59
2022-08-22T04:47:35.139Z,101677.19
2022-08-22T04:50:47.551Z,101673.41
2022-08-22T04:54:18.079Z,101669.50
2022-08-22T04:57:37.886Z,101679.19
2022-08-22T05:00:55.645Z,101678.97
2022-08-22T05:04:06.742Z,101677.38
2022-08-22T05:07:16.878Z,101674.03
2022-08-22T05:10:25.786Z,101671.38
2022-08-22T05:13:35.404Z,101677.38
2022-08-22T05:16:45.025Z,101673.97
2022-08-22T05:19:56.510Z,101673.16
2022-08-22T05:23:17.422Z,101673.75
2022-08-22T05:26:23.418Z,101679.44
2022-08-22T05:29:33.039Z,101680.81
2022-08-22T05:32:50.540Z,101683.09
2022-08-22T05:36:02.806Z,101684.53
2022-08-22T05:39:15.175Z,101686.06
2022-08-22T05:42:27.559Z,101687.75
2022-08-22T05:45:36.487Z,101681.41
2022-08-22T05:48:47.483Z,101679.91
2022-08-22T05:52:17.059Z,101680.69
2022-08-22T05:55:29.999Z,101683.31
2022-08-22T05:58:55.613Z,101678.00
2022-08-22T06:02:10.680Z,101683.41
2022-08-22T06:05:14.465Z,101682.97
2022-08-22T06:08:26.287Z,101687.78
2022-08-22T06:11:38.867Z,101688.31
2022-08-22T06:14:54.170Z,101687.84
2022-08-22T06:18:06.220Z,101686.47
2022-08-22T06:21:14.604Z,101696.94
2022-08-22T06:24:25.086Z,101705.97
2022-08-22T06:27:31.435Z,101704.28
2022-08-22T06:30:38.142Z,101700.78
2022-08-22T06:33:46.635Z,101712.13
2022-08-22T06:36:52.952Z,101705.47
2022-08-22T06:39:57.996Z,101708.63
2022-08-22T06:43:01.856Z,101708.53
2022-08-22T06:46:07.403Z,101710.84
2022-08-22T06:49:14.037Z,101709.91
2022-08-22T06:52:24.484Z,101708.34
2022-08-22T06:55:31.556Z,101704.03
2022-08-22T06:58:39.957Z,101713.47
2022-08-22T07:01:52.147Z,101711.38
2022-08-22T07:04:57.743Z,101712.84
2022-08-22T07:08:08.813Z,101714.59
2022-08-22T07:11:21.877Z,101714.94
2022-08-22T07:14:32.539Z,101720.72
2022-08-22T07:17:40.509Z,101725.75
2022-08-22T07:20:54.549Z,101715.75
2022-08-22T07:24:02.160Z,101718.84
2022-08-22T07:27:28.305Z,101722.59
2022-08-22T07:30:51.401Z,101716.28
2022-08-22T07:34:05.868Z,101730.91
2022-08-22T07:37:23.969Z,101727.28
2022-08-22T07:40:39.144Z,101726.66
2022-08-22T07:43:49.281Z,101724.06
2022-08-22T07:47:00.686Z,101729.97
2022-08-22T07:50:10.552Z,101724.91
2022-08-22T07:53:28.015Z,101726.22
2022-08-22T07:56:42.395Z,101730.38
2022-08-22T07:59:52.102Z,101730.47
2022-08-22T08:03:00.408Z,101727.25
2022-08-22T08:06:05.750Z,101725.72
2022-08-22T08:09:16.276Z,101728.03
2022-08-22T08:12:30.272Z,101727.50
2022-08-22T08:15:46.909Z,101717.13
2022-08-22T08:18:54.504Z,101712.44
2022-08-22T08:22:00.586Z,101726.06
2022-08-22T08:25:08.784Z,101723.03
2022-08-22T08:28:30.321Z,101722.84
2022-08-22T08:31:43.333Z,101723.13
2022-08-22T08:34:49.527Z,101716.38
2022-08-22T08:38:02.809Z,101712.88
2022-08-22T08:41:50.915Z,101708.50
2022-08-22T08:45:20.471Z,101714.41
2022-08-22T08:48:55.066Z,101695.72
2022-08-22T08:52:53.058Z,101702.72
2022-08-22T08:56:06.955Z,101692.28
2022-08-22T08:59:44.334Z,101688.31
2022-08-22T09:03:15.458Z,101681.16
2022-08-22T09:06:56.633Z,101686.84
2022-08-22T09:10:46.416Z,101679.75
2022-08-22T09:14:14.127Z,101677.38
2022-08-22T09:17:51.927Z,101678.56
2022-08-22T09:21:31.565Z,101675.38
2022-08-22T09:25:23.599Z,101670.34
2022-08-22T09:28:36.162Z,101672.41
2022-08-22T09:31:54.880Z,101659.44
2022-08-22T09:35:18.659Z,101656.06
2022-08-22T09:38:48.029Z,101649.78
2022-08-22T09:42:02.662Z,101653.75
2022-08-22T09:45:43.178Z,101649.16
2022-08-22T09:49:06.492Z,101640.63
2022-08-22T09:52:34.638Z,101648.94
2022-08-22T09:55:54.057Z,101648.59
2022-08-22T09:59:09.696Z,101640.28
2022-08-22T10:02:31.588Z,101644.78
2022-08-22T10:05:46.969Z,101645.78
2022-08-22T10:09:09.086Z,101642.97
2022-08-22T10:12:24.837Z,101632.84
2022-08-22T10:15:40.023Z,101632.84
2022-08-22T10:19:00.842Z,101636.41
2022-08-22T10:22:44.474Z,101642.97
2022-08-22T10:25:55.802Z,101627.38
2022-08-22T10:29:32.880Z,101625.16
2022-08-22T10:32:47.266Z,101626.34
2022-08-22T10:36:05.373Z,101617.00
2022-08-22T10:39:18.059Z,101614.38
2022-08-22T10:42:35.714Z,101614.25
2022-08-22T10:46:12.328Z,101619.34
2022-08-22T10:49:29.228Z,101615.09
2022-08-22T10:52:45.087Z,101611.69
2022-08-22T10:55:55.191Z,101613.31
2022-08-22T10:59:18.687Z,101611.63
2022-08-22T11:02:44.784Z,101613.91
2022-08-22T11:05:51.071Z,101606.69
2022-08-22T11:09:16.393Z,101605.50
2022-08-22T11:12:41.485Z,101605.09
2022-08-22T11:16:04.896Z,101607.03
2022-08-22T11:19:46.038Z,101604.88
2022-08-22T11:23:12.330Z,101608.03
2022-08-22T11:26:47.439Z,101598.91
2022-08-22T11:30:02.079Z,101594.75
2022-08-22T11:33:46.674Z,101592.41
2022-08-22T11:36:57.221Z,101595.59
2022-08-22T11:40:24.215Z,101609.53
2022-08-22T11:43:51.556Z,101594.78
2022-08-22T11:46:58.835Z,101594.22
2022-08-22T11:50:20.376Z,101591.38
2022-08-22T11:53:37.311Z,101588.94
2022-08-22T11:56:52.614Z,101588.75
2022-08-22T12:00:15.215Z,101595.03
2022-08-22T12:03:44.184Z,101594.97
2022-08-22T12:07:07.071Z,101585.38
2022-08-22T12:10:18.696Z,101587.72
2022-08-22T12:13:42.706Z,101587.69
2022-08-22T12:17:41.579Z,101580.81
2022-08-22T12:21:41.707Z,101582.22
2022-08-22T12:25:12.078Z,101582.72
2022-08-22T12:28:30.885Z,101578.78
2022-08-22T12:32:01.715Z,101573.38
2022-08-22T12:35:34.454Z,101568.41
2022-08-22T12:38:59.543Z,101561.97
2022-08-22T12:42:25.704Z,101554.13
2022-08-22T12:46:01.678Z,101551.88
2022-08-22T12:49:32.110Z,101548.69
2022-08-22T12:53:26.428Z,101549.84
2022-08-22T12:56:48.642Z,101548.03
2022-08-22T13:00:01.818Z,101543.16
2022-08-22T13:03:11.462Z,101547.06
2022-08-22T13:06:53.298Z,101540.38
2022-08-22T13:10:04.015Z,101539.47
2022-08-22T13:13:14.431Z,101539.19
2022-08-22T13:16:24.879Z,101535.66
2022-08-22T13:19:34.710Z,101530.09
2022-08-22T13:22:45.577Z,101530.09
2022-08-22T13:26:09.535Z,101534.66
2022-08-22T13:29:26.074Z,101529.25
2022-08-22T13:32:44.387Z,101527.00
2022-08-22T13:35:54.070Z,101521.25
2022-08-22T13:39:07.292Z,101522.91
2022-08-22T13:42:27.608Z,101516.56
2022-08-22T13:45:58.054Z,101512.34
2022-08-22T13:49:13.636Z,101518.44
2022-08-22T13:52:31.552Z,101512.47
2022-08-22T13:55:49.215Z,101513.75
2022-08-22T13:58:59.534Z,101519.38
2022-08-22T14:02:17.994Z,101511.53
2022-08-22T14:05:30.255Z,101516.47
2022-08-22T14:08:45.770Z,101511.06
2022-08-22T14:11:56.270Z,101511.16
2022-08-22T14:15:03.853Z,101506.50
2022-08-22T14:18:15.672Z,101502.53
2022-08-22T14:21:40.858Z,101506.69
2022-08-22T14:24:55.656Z,101502.19
2022-08-22T14:28:06.313Z,101497.63
2022-08-22T14:31:14.449Z,101504.97
2022-08-22T14:34:19.089Z,101501.72
2022-08-22T14:37:31.672Z,101502.13
2022-08-22T14:40:38.543Z,101500.56
2022-08-22T14:43:54.691Z,101507.31
2022-08-22T14:47:32.658Z,101495.75
2022-08-22T14:50:53.048Z,101497.72
2022-08-22T14:54:14.127Z,101491.94
2022-08-22T14:57:24.978Z,101491.53
2022-08-22T15:00:38.845Z,101490.84
2022-08-22T15:03:44.120Z,101483.06
2022-08-22T15:06:58.611Z,101484.47
2022-08-22T15:10:12.053Z,101479.50
2022-08-22T15:13:25.149Z,101472.25
2022-08-22T15:16:37.394Z,101467.38
2022-08-22T15:19:52.054Z,101463.59
2022-08-22T15:23:00.328Z,101462.19
2022-08-22T15:26:13.048Z,101460.25
2022-08-22T15:29:21.521Z,101462.47
2022-08-22T15:32:30.132Z,101459.94
2022-08-22T15:35:38.819Z,101456.69
2022-08-22T15:38:48.215Z,101450.00
2022-08-22T15:41:53.448Z,101444.91
2022-08-22T15:44:57.707Z,101446.31
2022-08-22T15:48:05.738Z,101447.16
2022-08-22T15:51:13.457Z,101442.13
2022-08-22T15:54:25.063Z,101441.69
2022-08-22T15:57:34.981Z,101440.41
2022-08-22T16:00:45.578Z,101434.19
2022-08-22T16:04:01.188Z,101429.94
2022-08-22T16:07:36.235Z,101433.06
2022-08-22T16:10:45.072Z,101427.69
2022-08-22T16:14:21.278Z,101423.97
2022-08-22T16:17:53.319Z,101426.53
2022-08-22T16:20:59.176Z,101432.91
2022-08-22T16:24:33.992Z,101432.03
2022-08-22T16:27:57.155Z,101424.13
2022-08-22T16:31:24.652Z,101413.72
2022-08-22T16:34:43.897Z,101415.19
2022-08-22T16:37:51.553Z,101415.69
2022-08-22T16:40:56.535Z,101418.22
2022-08-22T16:44:43.368Z,101422.00
2022-08-22T16:47:54.562Z,101421.56
2022-08-22T16:51:21.199Z,101418.97
2022-08-22T16:54:46.315Z,101417.28
2022-08-22T16:58:06.299Z,101418.00
2022-08-22T17:01:21.447Z,101417.84
2022-08-22T17:04:38.032Z,101418.38
2022-08-22T17:08:04.373Z,101415.25
2022-08-22T17:11:32.118Z,101410.66
2022-08-22T17:14:55.202Z,101418.25
2022-08-22T17:18:41.234Z,101410.59
2022-08-22T17:21:57.279Z,101416.91
2022-08-22T17:25:21.611Z,101417.00
2022-08-22T17:28:40.655Z,101421.75
2022-08-22T17:31:55.252Z,101419.59
2022-08-22T17:35:14.620Z,101419.28
2022-08-22T17:38:38.436Z,101422.47
2022-08-22T17:41:54.186Z,101421.28
2022-08-22T17:45:10.834Z,101420.72
2022-08-22T17:48:21.811Z,101420.59
2022-08-22T17:51:33.928Z,101416.88
2022-08-22T17:54:49.047Z,101422.84
2022-08-22T17:58:01.944Z,101419.25
2022-08-22T18:01:14.000Z,101425.09
2022-08-22T18:04:47.377Z,101426.34
2022-08-22T18:08:04.109Z,101428.06
2022-08-22T18:11:20.799Z,101433.59
2022-08-22T18:14:34.770Z,101424.47
2022-08-22T18:17:48.472Z,101438.81
2022-08-22T18:21:00.414Z,101437.00
2022-08-22T18:24:31.288Z,101441.25
2022-08-22T18:27:48.190Z,101454.66
2022-08-22T18:31:02.081Z,101450.38
2022-08-22T18:34:20.791Z,101453.66
2022-08-22T18:37:50.815Z,101455.59
2022-08-22T18:41:05.586Z,101456.31
2022-08-22T18:44:25.408Z,101454.19
2022-08-22T18:47:33.848Z,101451.13
2022-08-22T18:50:38.703Z,101460.47
2022-08-22T18:53:49.937Z,101460.06
2022-08-22T18:57:00.727Z,101466.66
2022-08-22T19:00:13.267Z,101466.13
2022-08-22T19:03:42.662Z,101471.94
2022-08-22T19:07:17.194Z,101472.53
2022-08-22T19:10:55.050Z,101475.56
2022-08-22T19:14:51.199Z,101471.56
2022-08-22T19:18:27.090Z,101475.31
2022-08-22T19:21:51.751Z,101482.69
2022-08-22T19:25:26.169Z,101486.81
2022-08-22T19:28:38.451Z,101492.03
2022-08-22T19:31:53.184Z,101489.59
2022-08-22T19:35:21.764Z,101491.00
2022-08-22T19:38:58.687Z,101490.59
2022-08-22T19:42:02.703Z,101489.53
2022-08-22T19:45:29.013Z,101489.00
2022-08-22T19:48:45.618Z,101487.63
2022-08-22T19:52:12.005Z,101483.28
2022-08-22T19:55:30.115Z,101483.78
2022-08-22T19:58:56.457Z,101480.59
2022-08-22T20:02:19.283Z,101475.25
2022-08-22T20:05:37.436Z,101483.72
2022-08-22T20:09:04.152Z,101475.28
2022-08-22T20:12:20.359Z,101474.44
2022-08-22T20:15:28.504Z,101477.56
2022-08-22T20:19:06.561Z,101472.53
2022-08-22T20:22:19.483Z,101480.88
2022-08-22T20:25:41.850Z,101465.69
2022-08-22T20:28:52.443Z,101467.00
2022-08-22T20:31:58.875Z,101466.25
2022-08-22T20:35:07.169Z,101467.44
2022-08-22T20:38:17.666Z,101465.00
2022-08-22T20:41:27.895Z,101462.63
2022-08-22T20:44:38.442Z,101459.34
2022-08-22T20:47:50.474Z,101460.50
2022-08-22T20:51:04.244Z,101455.28
2022-08-22T20:54:20.200Z,101453.56
2022-08-22T20:57:25.326Z,101450.78
2022-08-22T21:00:35.647Z,101449.19
2022-08-22T21:03:45.764Z,101439.88
2022-08-22T21:07:00.151Z,101450.56
2022-08-22T21:10:33.719Z,101456.66
2022-08-22T21:13:39.175Z,101462.97
2022-08-22T21:16:42.806Z,101462.22
2022-08-22T21:19:46.633Z,101466.81
2022-08-22T21:22:51.858Z,101465.09
2022-08-22T21:26:00.328Z,101473.22
2022-08-22T21:29:19.253Z,101475.03
2022-08-22T21:32:33.643Z,101479.81
2022-08-22T21:35:37.350Z,101474.50
2022-08-22T21:38:47.252Z,101479.09
2022-08-22T21:41:54.458Z,101478.75
2022-08-22T21:45:02.939Z,101478.00
2022-08-22T21:48:34.731Z,101480.69
2022-08-22T21:51:45.530Z,101474.13
2022-08-22T21:54:49.095Z,101480.75
2022-08-22T21:58:07.859Z,101484.69
2022-08-22T22:01:33.931Z,101485.56
2022-08-22T22:04:37.543Z,101489.41
2022-08-22T22:07:45.738Z,101489.56
2022-08-22T22:10:51.398Z,101485.97
2022-08-22T22:13:55.725Z,101486.19
2022-08-22T22:17:00.769Z,101489.69
2022-08-22T22:20:05.516Z,101486.78
2022-08-22T22:23:09.932Z,101489.88
2022-08-22T22:26:15.349Z,101488.16
2022-08-22T22:29:18.956Z,101486.88
2022-08-22T22:32:23.925Z,101493.34
2022-08-22T22:35:27.802Z,101487.69
2022-08-22T22:38:31.460Z,101500.16
2022-08-22T22:41:36.139Z,101494.38
2022-08-22T22:44:39.846Z,101503.03
2022-08-22T22:47:48.926Z,101503.72
2022-08-22T22:50:53.465Z,101501.44
2022-08-22T22:53:57.848Z,101502.59
2022-08-22T22:57:01.448Z,101494.72
2022-08-22T23:00:07.599Z,101502.69
2022-08-22T23:03:12.603Z,101498.78
2022-08-22T23:06:20.159Z,101495.28
2022-08-22T23:09:38.621Z,101498.47
2022-08-22T23:12:48.724Z,101505.13
2022-08-22T23:15:52.367Z,101501.91
2022-08-22T23:18:58.099Z,101513.41
2022-08-22T23:22:03.307Z,101513.13
2022-08-22T23:25:07.862Z,101510.88
2022-08-22T23:28:11.596Z,101511.59
2022-08-22T23:31:27.419Z,101511.72
2022-08-22T23:34:35.997Z,101508.00
2022-08-22T23:37:39.752Z,101507.91
2022-08-22T23:40:43.427Z,101519.88
2022-08-22T23:43:50.517Z,101517.31
2022-08-22T23:46:54.751Z,101522.44
2022-08-22T23:50:05.741Z,101526.06
2022-08-22T23:53:10.135Z,101521.69
2022-08-22T23:56:19.442Z,101526.06
2022-08-22T23:59:30.069Z,101522.00
